createdAt,value
2023-05-25T12:26:57.766Z,21.90
2023-05-25T12:29:27.909Z,21.60
2023-05-25T12:32:03.494Z,21.50
2023-05-25T12:34:31.797Z,21.50
2023-05-25T12:37:00.182Z,21.70
2023-05-25T12:39:38.886Z,21.90
2023-05-25T12:42:13.145Z,22.00
2023-05-25T12:44:43.083Z,22.10
2023-05-25T12:47:12.724Z,22.40
2023-05-25T12:49:41.643Z,22.70
2023-05-25T12:52:11.015Z,23.00
2023-05-25T12:54:42.217Z,23.20
2023-05-25T12:57:12.210Z,23.30
2023-05-25T12:59:42.784Z,23.40
2023-05-25T13:02:11.534Z,23.50
2023-05-25T13:04:40.822Z,23.40
2023-05-25T13:07:10.180Z,23.20
2023-05-25T13:09:38.821Z,23.10
2023-05-25T13:12:08.110Z,23.00
2023-05-25T13:14:36.480Z,22.90
2023-05-25T13:17:06.719Z,22.90
2023-05-25T13:19:35.171Z,22.80
2023-05-25T13:22:03.767Z,22.70
2023-05-25T13:24:32.665Z,22.60
2023-05-25T13:27:01.424Z,22.60
2023-05-25T13:29:29.783Z,22.50
2023-05-25T13:31:58.191Z,22.40
2023-05-25T13:34:27.960Z,22.50
2023-05-25T13:36:56.550Z,22.50
2023-05-25T13:39:24.856Z,22.50
2023-05-25T13:41:53.200Z,22.50
2023-05-25T13:44:21.557Z,22.70
2023-05-25T13:46:50.008Z,22.90
2023-05-25T13:49:19.647Z,23.10
2023-05-25T13:51:49.641Z,23.10
2023-05-25T13:54:18.748Z,23.10
2023-05-25T13:56:47.127Z,23.20
2023-05-25T13:59:15.715Z,23.30
2023-05-25T14:01:44.009Z,23.30
2023-05-25T14:04:14.862Z,23.30
2023-05-25T14:06:43.289Z,23.20
2023-05-25T14:09:13.563Z,23.00
2023-05-25T14:11:42.069Z,22.50
2023-05-25T14:14:23.242Z,22.20
2023-05-25T14:16:58.776Z,22.00
2023-05-25T14:19:27.146Z,21.70
2023-05-25T14:24:28.132Z,21.10
2023-05-25T14:26:56.418Z,20.90
2023-05-25T14:29:24.760Z,20.80
2023-05-25T14:31:53.278Z,20.80
2023-05-25T14:34:21.690Z,20.80
2023-05-25T14:36:50.062Z,20.90
2023-05-25T14:39:18.500Z,21.10
2023-05-25T14:41:48.186Z,21.20
2023-05-25T14:44:16.719Z,21.40
2023-05-25T14:46:45.179Z,21.40
2023-05-25T14:49:14.595Z,21.40
2023-05-25T14:51:42.918Z,21.30
2023-05-25T14:54:13.462Z,21.20
2023-05-25T14:56:41.881Z,21.30
2023-05-25T14:59:11.621Z,21.40
2023-05-25T15:01:40.359Z,21.50
2023-05-25T15:04:09.160Z,21.50
2023-05-25T15:06:39.387Z,21.60
2023-05-25T15:09:07.832Z,21.70
2023-05-25T15:11:36.206Z,21.80
2023-05-25T15:14:04.593Z,21.90
2023-05-25T15:16:34.561Z,22.10
2023-05-25T15:19:03.088Z,22.10
2023-05-25T15:21:31.516Z,22.20
2023-05-25T15:23:59.842Z,22.20
2023-05-25T15:26:28.240Z,22.20
2023-05-25T15:28:56.529Z,22.10
2023-05-25T15:31:25.411Z,22.00
2023-05-25T15:33:58.484Z,22.00
2023-05-25T15:36:27.435Z,21.90
2023-05-25T15:38:55.851Z,21.80
2023-05-25T15:41:24.217Z,21.60
2023-05-25T15:43:54.722Z,21.50
2023-05-25T15:46:23.210Z,21.50
2023-05-25T15:48:51.701Z,21.40
2023-05-25T15:51:21.469Z,21.40
2023-05-25T15:53:49.822Z,21.40
2023-05-25T15:56:18.201Z,21.40
2023-05-25T15:58:49.443Z,21.40
2023-05-25T16:01:17.952Z,21.40
2023-05-25T16:03:46.417Z,21.40
2023-05-25T16:06:14.821Z,21.20
2023-05-25T16:08:44.484Z,21.20
2023-05-25T16:11:12.912Z,21.20
2023-05-25T16:13:41.291Z,21.20
2023-05-25T16:16:09.871Z,21.20
2023-05-25T16:18:38.315Z,21.20
2023-05-25T16:21:07.136Z,21.20
2023-05-25T16:23:35.587Z,21.30
2023-05-25T16:26:06.014Z,21.30
2023-05-25T16:28:34.399Z,21.30
2023-05-25T16:31:02.717Z,21.30
2023-05-25T16:33:31.113Z,21.20
2023-05-25T16:36:00.404Z,21.20
2023-05-25T16:38:29.166Z,21.20
2023-05-25T16:40:57.890Z,21.20
2023-05-25T16:43:27.832Z,21.10
2023-05-25T16:46:16.313Z,21.10
2023-05-25T16:48:58.205Z,21.00
2023-05-25T16:52:04.118Z,20.90
2023-05-25T16:54:53.124Z,20.90
2023-05-25T16:57:43.622Z,20.80
2023-05-25T17:00:38.443Z,20.90
2023-05-25T17:03:16.298Z,20.80
2023-05-25T17:05:45.182Z,20.80
2023-05-25T17:08:13.659Z,20.70
2023-05-25T17:10:42.082Z,20.70
2023-05-25T17:13:10.460Z,20.70
2023-05-25T17:15:40.369Z,20.70
2023-05-25T17:18:08.788Z,20.60
2023-05-25T17:20:37.219Z,20.50
2023-05-25T17:23:05.626Z,20.40
2023-05-25T17:25:34.305Z,20.40
2023-05-25T17:28:02.834Z,20.30
2023-05-25T17:30:31.283Z,20.30
2023-05-25T17:33:01.736Z,20.30
2023-05-25T17:35:30.373Z,20.30
2023-05-25T17:37:58.699Z,20.20
2023-05-25T17:40:27.061Z,20.20
2023-05-25T17:42:55.455Z,20.20
2023-05-25T17:45:23.848Z,20.20
2023-05-25T17:47:52.305Z,20.10
2023-05-25T17:50:22.089Z,20.00
2023-05-25T17:52:50.424Z,19.90
2023-05-25T17:55:20.486Z,19.80
2023-05-25T17:57:48.864Z,19.80
2023-05-25T18:00:22.778Z,19.80
2023-05-25T18:02:52.088Z,19.80
2023-05-25T18:05:22.096Z,19.90
2023-05-25T18:07:50.476Z,19.90
2023-05-25T18:10:18.872Z,19.90
2023-05-25T18:12:49.349Z,19.80
2023-05-25T18:15:17.821Z,19.80
2023-05-25T18:17:46.212Z,19.70
2023-05-25T18:20:14.710Z,19.70
2023-05-25T18:22:44.477Z,19.60
2023-05-25T18:25:12.853Z,19.50
2023-05-25T18:27:41.221Z,19.40
2023-05-25T18:30:11.195Z,19.30
2023-05-25T18:32:39.535Z,19.20
2023-05-25T18:35:09.234Z,19.10
2023-05-25T18:37:37.621Z,19.00
2023-05-25T18:40:11.641Z,18.90
2023-05-25T18:42:40.013Z,18.80
2023-05-25T18:45:09.508Z,18.60
2023-05-25T18:47:38.122Z,18.50
2023-05-25T18:50:07.962Z,18.40
2023-05-25T18:52:36.343Z,18.30
2023-05-25T18:55:06.730Z,18.20
2023-05-25T18:57:35.102Z,18.10
2023-05-25T19:00:03.945Z,18.00
2023-05-25T19:02:32.395Z,18.00
2023-05-25T19:05:00.740Z,17.90
2023-05-25T19:07:29.158Z,17.80
2023-05-25T19:09:57.523Z,17.70
2023-05-25T19:12:27.229Z,17.60
2023-05-25T19:14:55.712Z,17.60
2023-05-25T19:17:24.094Z,17.50
2023-05-25T19:19:52.485Z,17.40
2023-05-25T19:22:20.910Z,17.40
2023-05-25T19:24:57.500Z,17.30
2023-05-25T19:27:30.292Z,17.30
2023-05-25T19:29:59.112Z,17.20
2023-05-25T19:32:27.494Z,17.10
2023-05-25T19:34:55.842Z,17.00
2023-05-25T19:37:24.272Z,17.00
2023-05-25T19:39:52.614Z,16.90
2023-05-25T19:42:20.999Z,16.90
2023-05-25T19:44:51.034Z,16.80
2023-05-25T19:47:19.451Z,16.80
2023-05-25T19:49:48.123Z,16.70
2023-05-25T19:52:17.765Z,16.70
2023-05-25T19:54:46.107Z,16.60
2023-05-25T19:57:14.498Z,16.60
2023-05-25T19:59:43.364Z,16.60
2023-05-25T20:02:13.379Z,16.50
2023-05-25T20:04:41.774Z,16.50
2023-05-25T20:07:10.632Z,16.40
2023-05-25T20:09:39.206Z,16.40
2023-05-25T20:12:08.063Z,16.40
2023-05-25T20:14:36.396Z,16.30
2023-05-25T20:17:05.206Z,16.20
2023-05-25T20:19:34.978Z,16.30
2023-05-25T20:22:04.304Z,16.20
2023-05-25T20:24:33.256Z,16.20
2023-05-25T20:27:01.651Z,16.10
2023-05-25T20:29:30.041Z,16.10
2023-05-25T20:31:58.488Z,16.10
2023-05-25T20:34:27.484Z,16.00
2023-05-25T20:36:57.196Z,16.00
2023-05-25T20:39:25.588Z,15.90
2023-05-25T20:41:53.910Z,15.90
2023-05-25T20:44:22.341Z,15.80
2023-05-25T20:46:50.767Z,15.80
2023-05-25T20:49:19.205Z,15.80
2023-05-25T20:51:50.022Z,15.80
2023-05-25T20:54:19.821Z,15.80
2023-05-25T20:56:48.350Z,15.70
2023-05-25T20:59:16.719Z,15.60
2023-05-25T21:01:45.360Z,15.60
2023-05-25T21:04:13.724Z,15.60
2023-05-25T21:06:42.070Z,15.60
2023-05-25T21:09:10.600Z,15.60
2023-05-25T21:11:40.391Z,15.50
2023-05-25T21:14:08.756Z,15.50
2023-05-25T21:16:37.320Z,15.50
2023-05-25T21:19:05.733Z,15.50
2023-05-25T21:21:34.093Z,15.50
2023-05-25T21:24:02.563Z,15.40
2023-05-25T21:26:31.378Z,15.30
2023-05-25T21:29:01.246Z,15.30
2023-05-25T21:31:29.652Z,15.30
2023-05-25T21:33:59.988Z,15.30
2023-05-25T21:36:28.968Z,15.20
2023-05-25T21:38:57.942Z,15.20
2023-05-25T21:41:27.207Z,15.10
2023-05-25T21:43:55.572Z,15.10
2023-05-25T21:46:25.428Z,15.10
2023-05-25T21:48:53.806Z,15.00
2023-05-25T21:51:22.138Z,15.00
2023-05-25T21:53:50.383Z,15.00
2023-05-25T21:56:18.791Z,14.90
2023-05-25T21:58:47.139Z,14.90
2023-05-25T22:01:15.518Z,14.90
2023-05-25T22:03:45.254Z,14.90
2023-05-25T22:06:13.649Z,14.80
2023-05-25T22:08:42.130Z,14.80
2023-05-25T22:11:10.762Z,14.80
2023-05-25T22:13:39.058Z,14.80
2023-05-25T22:16:07.955Z,14.70
2023-05-25T22:18:38.432Z,14.60
2023-05-25T22:21:08.432Z,14.60
2023-05-25T22:23:37.263Z,14.70
2023-05-25T22:26:05.677Z,14.70
2023-05-25T22:28:34.085Z,14.60
2023-05-25T22:31:02.482Z,14.60
2023-05-25T22:33:30.796Z,14.60
2023-05-25T22:35:59.104Z,14.60
2023-05-25T22:38:28.866Z,14.50
2023-05-25T22:40:57.264Z,14.50
2023-05-25T22:43:26.999Z,14.50
2023-05-25T22:45:56.984Z,14.50
2023-05-25T22:48:25.443Z,14.40
2023-05-25T22:50:53.741Z,14.40
2023-05-25T22:53:22.396Z,14.40
2023-05-25T22:55:52.314Z,14.30
2023-05-25T22:58:20.802Z,14.30
2023-05-25T23:00:49.269Z,14.20
2023-05-25T23:03:17.834Z,14.10
2023-05-25T23:05:46.523Z,14.10
2023-05-25T23:08:15.163Z,14.10
2023-05-25T23:10:43.488Z,14.10
2023-05-25T23:13:14.394Z,14.10
2023-05-25T23:15:44.866Z,14.10
2023-05-25T23:18:13.456Z,14.00
2023-05-25T23:20:41.865Z,14.00
2023-05-25T23:23:10.472Z,13.90
2023-05-25T23:25:38.829Z,13.90
2023-05-25T23:28:07.190Z,13.80
2023-05-25T23:30:37.833Z,13.80
2023-05-25T23:33:08.453Z,13.70
2023-05-25T23:35:36.869Z,13.70
2023-05-25T23:38:05.530Z,13.70
2023-05-25T23:40:33.908Z,13.60
2023-05-25T23:43:02.361Z,13.60
2023-05-25T23:45:30.716Z,13.50
2023-05-25T23:48:00.481Z,13.40
2023-05-25T23:50:28.864Z,13.40
2023-05-25T23:52:57.202Z,13.30
2023-05-25T23:55:25.678Z,13.30
2023-05-25T23:57:54.185Z,13.20
